sensor_id;sensor_type;location;lat;lon;timestamp;pressure;altitude;pressure_sealevel;temperature;humidity
77631;BME280;66798;47.370;8.552;2023-03-09T00:01:41;94905.34;;;10.18;73.49
77631;BME280;66798;47.370;8.552;2023-03-09T00:04:12;94890.00;;;10.11;73.82
77631;BME280;66798;47.370;8.552;2023-03-09T00:06:38;94902.16;;;9.98;75.11
77631;BME280;66798;47.370;8.552;2023-03-09T00:09:05;94905.56;;;9.90;74.94
77631;BME280;66798;47.370;8.552;2023-03-09T00:11:30;94904.31;;;9.88;75.41
77631;BME280;66798;47.370;8.552;2023-03-09T00:13:56;94904.13;;;9.84;75.32
77631;BME280;66798;47.370;8.552;2023-03-09T00:16:24;94909.69;;;9.83;75.76
77631;BME280;66798;47.370;8.552;2023-03-09T00:18:52;94896.69;;;9.77;76.02
77631;BME280;66798;47.370;8.552;2023-03-09T00:21:18;94908.94;;;9.82;75.54
77631;BME280;66798;47.370;8.552;2023-03-09T00:24:20;94899.47;;;9.81;76.09
77631;BME280;66798;47.370;8.552;2023-03-09T00:26:51;94907.38;;;9.81;75.46
77631;BME280;66798;47.370;8.552;2023-03-09T00:29:17;94907.66;;;9.79;76.25
77631;BME280;66798;47.370;8.552;2023-03-09T00:31:43;94929.59;;;9.75;75.85
77631;BME280;66798;47.370;8.552;2023-03-09T00:34:10;94888.31;;;9.67;75.86
77631;BME280;66798;47.370;8.552;2023-03-09T00:36:37;94915.59;;;9.57;76.77
77631;BME280;66798;47.370;8.552;2023-03-09T00:39:03;94938.03;;;9.63;77.33
77631;BME280;66798;47.370;8.552;2023-03-09T00:41:29;94941.34;;;9.46;78.57
77631;BME280;66798;47.370;8.552;2023-03-09T00:44:01;94965.16;;;9.36;80.78
77631;BME280;66798;47.370;8.552;2023-03-09T00:46:28;94949.78;;;9.43;78.30
77631;BME280;66798;47.370;8.552;2023-03-09T00:48:54;94928.97;;;9.47;77.62
77631;BME280;66798;47.370;8.552;2023-03-09T00:51:20;94928.66;;;9.48;77.30
77631;BME280;66798;47.370;8.552;2023-03-09T00:53:46;94947.28;;;9.61;76.55
77631;BME280;66798;47.370;8.552;2023-03-09T00:56:18;94922.78;;;9.74;76.15
77631;BME280;66798;47.370;8.552;2023-03-09T00:58:44;94921.19;;;9.64;76.15
77631;BME280;66798;47.370;8.552;2023-03-09T01:01:12;94925.78;;;9.90;75.92
77631;BME280;66798;47.370;8.552;2023-03-09T01:03:39;94912.88;;;10.11;74.13
77631;BME280;66798;47.370;8.552;2023-03-09T01:06:05;94890.63;;;10.08;73.86
77631;BME280;66798;47.370;8.552;2023-03-09T01:08:32;94944.28;;;10.25;73.35
77631;BME280;66798;47.370;8.552;2023-03-09T01:10:58;94921.59;;;10.29;73.26
77631;BME280;66798;47.370;8.552;2023-03-09T01:13:24;94929.44;;;10.20;73.99
77631;BME280;66798;47.370;8.552;2023-03-09T01:15:49;94942.91;;;10.27;73.77
77631;BME280;66798;47.370;8.552;2023-03-09T01:18:15;94935.91;;;10.14;74.34
77631;BME280;66798;47.370;8.552;2023-03-09T01:20:41;94899.84;;;10.37;72.15
77631;BME280;66798;47.370;8.552;2023-03-09T01:23:06;94908.66;;;10.32;72.20
77631;BME280;66798;47.370;8.552;2023-03-09T01:25:32;94906.97;;;10.45;70.44
77631;BME280;66798;47.370;8.552;2023-03-09T01:27:57;94910.69;;;10.61;70.08
77631;BME280;66798;47.370;8.552;2023-03-09T01:30:23;94887.00;;;10.96;67.73
77631;BME280;66798;47.370;8.552;2023-03-09T01:32:48;94908.53;;;10.90;68.42
77631;BME280;66798;47.370;8.552;2023-03-09T01:35:14;94908.38;;;10.69;69.51
77631;BME280;66798;47.370;8.552;2023-03-09T01:37:39;94897.22;;;10.72;68.87
77631;BME280;66798;47.370;8.552;2023-03-09T01:40:05;94896.28;;;10.68;68.63
77631;BME280;66798;47.370;8.552;2023-03-09T01:42:34;94861.38;;;10.84;67.16
77631;BME280;66798;47.370;8.552;2023-03-09T01:47:51;94876.06;;;10.68;67.53
77631;BME280;66798;47.370;8.552;2023-03-09T01:50:20;94862.28;;;10.80;66.25
77631;BME280;66798;47.370;8.552;2023-03-09T01:52:49;94884.88;;;10.81;65.46
77631;BME280;66798;47.370;8.552;2023-03-09T01:55:23;94877.72;;;11.25;62.99
77631;BME280;66798;47.370;8.552;2023-03-09T01:58:02;94905.09;;;11.33;62.42
77631;BME280;66798;47.370;8.552;2023-03-09T02:00:29;94888.44;;;11.58;60.26
77631;BME280;66798;47.370;8.552;2023-03-09T02:03:07;94895.28;;;11.59;60.41
77631;BME280;66798;47.370;8.552;2023-03-09T02:05:39;94933.69;;;11.60;60.59
77631;BME280;66798;47.370;8.552;2023-03-09T02:08:08;94938.81;;;11.48;60.21
77631;BME280;66798;47.370;8.552;2023-03-09T02:10:52;94953.38;;;11.45;60.87
77631;BME280;66798;47.370;8.552;2023-03-09T02:13:24;94972.75;;;11.15;64.12
77631;BME280;66798;47.370;8.552;2023-03-09T02:15:50;95001.00;;;10.57;66.96
77631;BME280;66798;47.370;8.552;2023-03-09T02:18:16;94961.06;;;10.46;67.09
77631;BME280;66798;47.370;8.552;2023-03-09T02:21:15;94968.94;;;10.37;68.22
77631;BME280;66798;47.370;8.552;2023-03-09T02:24:19;94957.00;;;10.31;69.85
77631;BME280;66798;47.370;8.552;2023-03-09T02:27:01;94983.19;;;10.14;72.04
77631;BME280;66798;47.370;8.552;2023-03-09T02:29:28;94976.63;;;9.94;73.27
77631;BME280;66798;47.370;8.552;2023-03-09T02:31:54;95017.50;;;9.86;74.32
77631;BME280;66798;47.370;8.552;2023-03-09T02:34:20;94981.28;;;9.66;76.25
77631;BME280;66798;47.370;8.552;2023-03-09T02:36:45;94937.00;;;9.50;77.34
77631;BME280;66798;47.370;8.552;2023-03-09T02:39:23;94952.00;;;9.81;73.62
77631;BME280;66798;47.370;8.552;2023-03-09T02:41:55;94977.69;;;9.62;75.38
77631;BME280;66798;47.370;8.552;2023-03-09T02:44:23;94956.97;;;9.60;75.72
77631;BME280;66798;47.370;8.552;2023-03-09T02:46:49;94989.50;;;9.73;74.35
77631;BME280;66798;47.370;8.552;2023-03-09T02:49:16;94964.91;;;9.69;73.90
77631;BME280;66798;47.370;8.552;2023-03-09T02:51:42;94918.91;;;9.71;73.53
77631;BME280;66798;47.370;8.552;2023-03-09T02:54:07;94920.06;;;9.56;75.17
77631;BME280;66798;47.370;8.552;2023-03-09T02:56:33;94943.81;;;9.51;77.00
77631;BME280;66798;47.370;8.552;2023-03-09T02:58:58;94921.59;;;9.49;75.69
77631;BME280;66798;47.370;8.552;2023-03-09T03:01:23;94932.84;;;9.49;76.49
77631;BME280;66798;47.370;8.552;2023-03-09T03:03:49;94937.69;;;9.56;75.70
77631;BME280;66798;47.370;8.552;2023-03-09T03:06:14;94932.50;;;9.73;74.23
77631;BME280;66798;47.370;8.552;2023-03-09T03:08:40;94939.28;;;9.74;74.45
77631;BME280;66798;47.370;8.552;2023-03-09T03:11:05;94926.16;;;9.66;75.27
77631;BME280;66798;47.370;8.552;2023-03-09T03:13:31;94960.09;;;9.62;76.02
77631;BME280;66798;47.370;8.552;2023-03-09T03:15:58;94923.31;;;9.53;76.98
77631;BME280;66798;47.370;8.552;2023-03-09T03:18:23;94944.88;;;9.50;76.56
77631;BME280;66798;47.370;8.552;2023-03-09T03:20:49;94917.59;;;9.51;76.65
77631;BME280;66798;47.370;8.552;2023-03-09T03:23:14;94955.56;;;9.54;76.47
77631;BME280;66798;47.370;8.552;2023-03-09T03:25:40;94929.19;;;9.59;75.63
77631;BME280;66798;47.370;8.552;2023-03-09T03:28:05;94945.00;;;10.08;72.32
77631;BME280;66798;47.370;8.552;2023-03-09T03:30:31;94929.25;;;10.08;72.39
77631;BME280;66798;47.370;8.552;2023-03-09T03:32:56;94972.84;;;10.09;72.40
77631;BME280;66798;47.370;8.552;2023-03-09T03:35:21;94953.22;;;10.15;70.96
77631;BME280;66798;47.370;8.552;2023-03-09T03:37:47;94952.75;;;10.13;71.08
77631;BME280;66798;47.370;8.552;2023-03-09T03:40:13;94942.84;;;10.10;71.94
77631;BME280;66798;47.370;8.552;2023-03-09T03:42:38;94931.72;;;10.13;71.06
77631;BME280;66798;47.370;8.552;2023-03-09T03:45:04;94932.38;;;10.18;69.84
77631;BME280;66798;47.370;8.552;2023-03-09T03:47:30;94924.66;;;10.22;70.02
77631;BME280;66798;47.370;8.552;2023-03-09T03:49:55;94942.56;;;10.20;69.44
77631;BME280;66798;47.370;8.552;2023-03-09T03:52:20;94943.69;;;10.28;68.67
77631;BME280;66798;47.370;8.552;2023-03-09T03:54:46;94940.03;;;10.37;68.31
77631;BME280;66798;47.370;8.552;2023-03-09T03:57:11;94958.09;;;10.30;69.03
77631;BME280;66798;47.370;8.552;2023-03-09T03:59:37;94960.09;;;10.33;68.02
77631;BME280;66798;47.370;8.552;2023-03-09T04:02:02;94960.09;;;10.33;68.69
77631;BME280;66798;47.370;8.552;2023-03-09T04:04:28;94949.31;;;10.44;68.16
77631;BME280;66798;47.370;8.552;2023-03-09T04:06:53;94982.72;;;10.43;68.49
77631;BME280;66798;47.370;8.552;2023-03-09T04:09:18;94990.50;;;10.26;70.07
77631;BME280;66798;47.370;8.552;2023-03-09T04:11:44;94984.50;;;10.25;70.95
77631;BME280;66798;47.370;8.552;2023-03-09T04:14:11;94979.59;;;10.32;69.53
77631;BME280;66798;47.370;8.552;2023-03-09T04:16:36;94974.44;;;10.27;69.29
77631;BME280;66798;47.370;8.552;2023-03-09T04:19:03;95004.63;;;10.30;69.68
77631;BME280;66798;47.370;8.552;2023-03-09T04:21:29;95004.78;;;10.33;69.32
77631;BME280;66798;47.370;8.552;2023-03-09T04:23:54;95031.75;;;10.16;71.54
77631;BME280;66798;47.370;8.552;2023-03-09T04:26:20;95036.91;;;9.99;73.10
77631;BME280;66798;47.370;8.552;2023-03-09T04:28:45;95043.91;;;9.81;74.81
77631;BME280;66798;47.370;8.552;2023-03-09T04:31:11;95068.84;;;9.70;75.90
77631;BME280;66798;47.370;8.552;2023-03-09T04:33:37;95065.56;;;9.64;76.01
77631;BME280;66798;47.370;8.552;2023-03-09T04:36:02;95072.19;;;9.62;76.03
77631;BME280;66798;47.370;8.552;2023-03-09T04:38:28;95092.63;;;9.51;77.19
77631;BME280;66798;47.370;8.552;2023-03-09T04:40:53;95094.72;;;9.40;79.16
77631;BME280;66798;47.370;8.552;2023-03-09T04:43:19;95124.78;;;9.20;81.36
77631;BME280;66798;47.370;8.552;2023-03-09T04:45:44;95107.88;;;9.12;81.68
77631;BME280;66798;47.370;8.552;2023-03-09T04:48:10;95117.97;;;9.05;81.99
77631;BME280;66798;47.370;8.552;2023-03-09T04:50:35;95134.22;;;8.93;82.78
77631;BME280;66798;47.370;8.552;2023-03-09T04:53:01;95156.72;;;8.67;83.48
77631;BME280;66798;47.370;8.552;2023-03-09T04:55:26;95170.25;;;8.41;84.88
77631;BME280;66798;47.370;8.552;2023-03-09T04:57:52;95166.72;;;8.32;85.63
77631;BME280;66798;47.370;8.552;2023-03-09T05:00:18;95173.38;;;8.24;86.43
77631;BME280;66798;47.370;8.552;2023-03-09T05:02:43;95184.84;;;8.28;87.17
77631;BME280;66798;47.370;8.552;2023-03-09T05:05:10;95185.63;;;8.29;87.16
77631;BME280;66798;47.370;8.552;2023-03-09T05:07:36;95198.09;;;8.37;85.96
77631;BME280;66798;47.370;8.552;2023-03-09T05:10:02;95217.56;;;8.50;85.36
77631;BME280;66798;47.370;8.552;2023-03-09T05:12:28;95232.06;;;8.61;83.18
77631;BME280;66798;47.370;8.552;2023-03-09T05:15:00;95204.94;;;8.52;81.85
77631;BME280;66798;47.370;8.552;2023-03-09T05:17:25;95219.19;;;8.46;81.79
77631;BME280;66798;47.370;8.552;2023-03-09T05:19:51;95232.13;;;8.37;82.61
77631;BME280;66798;47.370;8.552;2023-03-09T05:22:17;95208.44;;;8.28;80.58
77631;BME280;66798;47.370;8.552;2023-03-09T05:24:42;95235.47;;;8.24;79.75
77631;BME280;66798;47.370;8.552;2023-03-09T05:27:08;95226.78;;;8.09;80.83
77631;BME280;66798;47.370;8.552;2023-03-09T05:29:34;95218.34;;;8.13;78.69
77631;BME280;66798;47.370;8.552;2023-03-09T05:32:00;95218.06;;;8.14;77.20
77631;BME280;66798;47.370;8.552;2023-03-09T05:34:25;95216.09;;;8.06;77.26
77631;BME280;66798;47.370;8.552;2023-03-09T05:36:50;95226.59;;;8.06;77.73
77631;BME280;66798;47.370;8.552;2023-03-09T05:39:16;95248.91;;;8.17;76.23
77631;BME280;66798;47.370;8.552;2023-03-09T05:41:41;95252.69;;;8.11;76.09
77631;BME280;66798;47.370;8.552;2023-03-09T05:44:07;95265.78;;;8.30;75.23
77631;BME280;66798;47.370;8.552;2023-03-09T05:46:32;95259.69;;;8.35;74.46
77631;BME280;66798;47.370;8.552;2023-03-09T05:48:58;95283.19;;;8.21;75.75
77631;BME280;66798;47.370;8.552;2023-03-09T05:51:23;95283.69;;;8.23;75.39
77631;BME280;66798;47.370;8.552;2023-03-09T05:53:49;95301.19;;;8.27;75.35
77631;BME280;66798;47.370;8.552;2023-03-09T05:56:14;95264.34;;;8.38;74.74
77631;BME280;66798;47.370;8.552;2023-03-09T05:58:40;95315.09;;;8.47;74.15
77631;BME280;66798;47.370;8.552;2023-03-09T06:01:16;95326.69;;;8.60;72.46
77631;BME280;66798;47.370;8.552;2023-03-09T06:03:42;95340.50;;;8.46;73.84
77631;BME280;66798;47.370;8.552;2023-03-09T06:06:09;95342.13;;;8.42;73.48
77631;BME280;66798;47.370;8.552;2023-03-09T06:08:34;95350.19;;;8.46;72.64
77631;BME280;66798;47.370;8.552;2023-03-09T06:11:00;95348.97;;;8.38;73.85
77631;BME280;66798;47.370;8.552;2023-03-09T06:13:26;95359.25;;;8.35;73.19
77631;BME280;66798;47.370;8.552;2023-03-09T06:15:52;95363.03;;;8.47;71.95
77631;BME280;66798;47.370;8.552;2023-03-09T06:18:17;95350.19;;;8.46;71.98
77631;BME280;66798;47.370;8.552;2023-03-09T06:20:44;95367.69;;;8.69;69.64
77631;BME280;66798;47.370;8.552;2023-03-09T06:23:10;95384.63;;;8.58;71.88
77631;BME280;66798;47.370;8.552;2023-03-09T06:25:36;95367.63;;;8.56;71.34
77631;BME280;66798;47.370;8.552;2023-03-09T06:28:02;95383.56;;;8.40;72.54
77631;BME280;66798;47.370;8.552;2023-03-09T06:30:28;95381.38;;;8.47;71.19
77631;BME280;66798;47.370;8.552;2023-03-09T06:32:54;95384.13;;;8.56;70.61
77631;BME280;66798;47.370;8.552;2023-03-09T06:35:20;95408.91;;;8.45;71.83
77631;BME280;66798;47.370;8.552;2023-03-09T06:37:45;95391.41;;;8.40;71.77
77631;BME280;66798;47.370;8.552;2023-03-09T06:40:11;95402.91;;;8.44;71.15
77631;BME280;66798;47.370;8.552;2023-03-09T06:42:38;95416.88;;;8.59;71.19
77631;BME280;66798;47.370;8.552;2023-03-09T06:45:04;95431.84;;;8.53;71.39
77631;BME280;66798;47.370;8.552;2023-03-09T06:47:30;71088.69;;;-145.77;100.00
77631;BME280;66798;47.370;8.552;2023-03-09T06:49:55;71088.69;;;-145.77;100.00
77631;BME280;66798;47.370;8.552;2023-03-09T06:52:21;71088.69;;;-145.77;100.00
77631;BME280;66798;47.370;8.552;2023-03-09T06:54:47;71088.69;;;-145.77;100.00
77631;BME280;66798;47.370;8.552;2023-03-09T06:57:12;71088.69;;;-145.77;100.00
77631;BME280;66798;47.370;8.552;2023-03-09T06:59:38;71088.69;;;-145.77;100.00
77631;BME280;66798;47.370;8.552;2023-03-09T07:02:03;71088.69;;;-145.77;100.00
77631;BME280;66798;47.370;8.552;2023-03-09T07:04:29;71088.69;;;-145.77;100.00
77631;BME280;66798;47.370;8.552;2023-03-09T07:08:51;95489.25;;;8.55;70.41
77631;BME280;66798;47.370;8.552;2023-03-09T07:11:16;95499.16;;;8.58;70.16
77631;BME280;66798;47.370;8.552;2023-03-09T07:13:42;95539.03;;;8.55;70.06
77631;BME280;66798;47.370;8.552;2023-03-09T07:16:07;95505.75;;;8.55;70.80
77631;BME280;66798;47.370;8.552;2023-03-09T07:18:33;95500.38;;;8.41;71.01
77631;BME280;66798;47.370;8.552;2023-03-09T07:21:01;95511.16;;;8.40;71.17
77631;BME280;66798;47.370;8.552;2023-03-09T07:23:28;95548.63;;;8.40;70.88
77631;BME280;66798;47.370;8.552;2023-03-09T07:25:54;95520.97;;;8.53;69.83
77631;BME280;66798;47.370;8.552;2023-03-09T07:28:19;95554.56;;;8.51;69.98
77631;BME280;66798;47.370;8.552;2023-03-09T07:30:45;95528.75;;;8.05;74.46
77631;BME280;66798;47.370;8.552;2023-03-09T07:33:10;95523.38;;;7.91;76.26
77631;BME280;66798;47.370;8.552;2023-03-09T07:35:39;95538.09;;;7.87;74.71
77631;BME280;66798;47.370;8.552;2023-03-09T07:38:04;95532.16;;;7.76;74.88
77631;BME280;66798;47.370;8.552;2023-03-09T07:40:30;95540.00;;;7.76;74.96
77631;BME280;66798;47.370;8.552;2023-03-09T07:42:55;95535.53;;;7.82;75.80
77631;BME280;66798;47.370;8.552;2023-03-09T07:45:22;95539.16;;;7.86;76.52
77631;BME280;66798;47.370;8.552;2023-03-09T07:47:48;95536.72;;;7.95;75.88
77631;BME280;66798;47.370;8.552;2023-03-09T07:50:14;95551.00;;;8.07;74.43
77631;BME280;66798;47.370;8.552;2023-03-09T07:52:40;95560.06;;;8.20;73.70
77631;BME280;66798;47.370;8.552;2023-03-09T07:55:06;95554.56;;;8.46;72.13
77631;BME280;66798;47.370;8.552;2023-03-09T07:57:34;95549.34;;;8.70;71.13
77631;BME280;66798;47.370;8.552;2023-03-09T08:00:00;95579.09;;;8.84;71.06
77631;BME280;66798;47.370;8.552;2023-03-09T08:02:26;95589.69;;;9.55;68.02
77631;BME280;66798;47.370;8.552;2023-03-09T08:04:52;95561.78;;;10.30;65.91
77631;BME280;66798;47.370;8.552;2023-03-09T08:07:18;95565.31;;;10.80;63.52
77631;BME280;66798;47.370;8.552;2023-03-09T08:09:43;95555.25;;;11.46;61.83
77631;BME280;66798;47.370;8.552;2023-03-09T08:12:09;95556.56;;;11.35;61.39
77631;BME280;66798;47.370;8.552;2023-03-09T08:14:36;95570.75;;;12.07;58.94
77631;BME280;66798;47.370;8.552;2023-03-09T08:17:01;95568.03;;;12.21;55.87
77631;BME280;66798;47.370;8.552;2023-03-09T08:19:30;95572.34;;;12.96;57.87
77631;BME280;66798;47.370;8.552;2023-03-09T08:21:55;95581.03;;;12.88;56.51
77631;BME280;66798;47.370;8.552;2023-03-09T08:24:21;95574.25;;;13.05;55.38
77631;BME280;66798;47.370;8.552;2023-03-09T08:26:46;95599.69;;;14.01;53.16
77631;BME280;66798;47.370;8.552;2023-03-09T08:29:11;95559.06;;;14.71;53.40
77631;BME280;66798;47.370;8.552;2023-03-09T08:31:37;95579.94;;;13.81;51.10
77631;BME280;66798;47.370;8.552;2023-03-09T08:34:03;95580.59;;;15.49;50.28
77631;BME280;66798;47.370;8.552;2023-03-09T08:36:29;95571.41;;;13.50;51.80
77631;BME280;66798;47.370;8.552;2023-03-09T08:38:55;95594.09;;;13.94;50.35
77631;BME280;66798;47.370;8.552;2023-03-09T08:41:21;95571.72;;;13.57;51.21
77631;BME280;66798;47.370;8.552;2023-03-09T08:43:49;95569.69;;;14.62;47.67
77631;BME280;66798;47.370;8.552;2023-03-09T08:46:15;95582.13;;;13.45;50.27
77631;BME280;66798;47.370;8.552;2023-03-09T08:48:40;95597.88;;;12.07;53.86
77631;BME280;66798;47.370;8.552;2023-03-09T08:51:08;95597.06;;;12.61;52.27
77631;BME280;66798;47.370;8.552;2023-03-09T08:53:35;95615.47;;;13.23;52.74
77631;BME280;66798;47.370;8.552;2023-03-09T08:56:06;95607.03;;;14.60;48.73
77631;BME280;66798;47.370;8.552;2023-03-09T08:58:33;95608.38;;;13.93;50.61
77631;BME280;66798;47.370;8.552;2023-03-09T09:01:04;95612.63;;;15.36;47.45
77631;BME280;66798;47.370;8.552;2023-03-09T09:03:31;95612.66;;;15.78;45.60
77631;BME280;66798;47.370;8.552;2023-03-09T09:06:03;95617.09;;;14.11;50.12
77631;BME280;66798;47.370;8.552;2023-03-09T09:08:29;95617.59;;;13.12;50.92
77631;BME280;66798;47.370;8.552;2023-03-09T09:10:55;95626.13;;;12.38;52.14
77631;BME280;66798;47.370;8.552;2023-03-09T09:13:22;95612.13;;;11.70;53.60
77631;BME280;66798;47.370;8.552;2023-03-09T09:15:53;95601.44;;;11.89;53.78
77631;BME280;66798;47.370;8.552;2023-03-09T09:18:18;95614.31;;;11.68;53.85
77631;BME280;66798;47.370;8.552;2023-03-09T09:20:44;95624.72;;;12.09;54.00
77631;BME280;66798;47.370;8.552;2023-03-09T09:23:09;95624.44;;;13.13;51.74
77631;BME280;66798;47.370;8.552;2023-03-09T09:25:35;95622.53;;;13.54;49.81
77631;BME280;66798;47.370;8.552;2023-03-09T09:28:00;95608.47;;;14.49;47.17
77631;BME280;66798;47.370;8.552;2023-03-09T09:30:26;95616.75;;;14.13;48.05
77631;BME280;66798;47.370;8.552;2023-03-09T09:32:52;95617.00;;;15.61;45.48
77631;BME280;66798;47.370;8.552;2023-03-09T09:35:18;95631.13;;;15.15;46.99
77631;BME280;66798;47.370;8.552;2023-03-09T09:37:43;95606.47;;;15.74;45.12
77631;BME280;66798;47.370;8.552;2023-03-09T09:40:13;95615.97;;;15.96;44.58
77631;BME280;66798;47.370;8.552;2023-03-09T09:42:42;95620.22;;;13.87;48.70
77631;BME280;66798;47.370;8.552;2023-03-09T09:45:32;95623.72;;;14.43;48.29
77631;BME280;66798;47.370;8.552;2023-03-09T09:48:03;95612.34;;;14.52;47.96
77631;BME280;66798;47.370;8.552;2023-03-09T09:53:34;95607.00;;;15.07;47.46
77631;BME280;66798;47.370;8.552;2023-03-09T09:56:09;95611.69;;;15.61;46.41
77631;BME280;66798;47.370;8.552;2023-03-09T09:59:01;95598.84;;;15.72;45.98
77631;BME280;66798;47.370;8.552;2023-03-09T10:04:16;95591.72;;;14.83;46.78
77631;BME280;66798;47.370;8.552;2023-03-09T10:06:46;95586.44;;;14.75;47.06
77631;BME280;66798;47.370;8.552;2023-03-09T10:09:26;95575.88;;;16.30;45.45
77631;BME280;66798;47.370;8.552;2023-03-09T10:11:56;95586.22;;;15.90;45.03
77631;BME280;66798;47.370;8.552;2023-03-09T10:14:42;95585.50;;;15.09;46.33
77631;BME280;66798;47.370;8.552;2023-03-09T10:17:31;95591.81;;;15.25;45.86
77631;BME280;66798;47.370;8.552;2023-03-09T10:22:49;95591.34;;;15.74;45.88
77631;BME280;66798;47.370;8.552;2023-03-09T10:25:20;95600.06;;;14.94;46.95
77631;BME280;66798;47.370;8.552;2023-03-09T10:27:59;95585.97;;;15.83;45.59
77631;BME280;66798;47.370;8.552;2023-03-09T10:30:50;95591.00;;;16.30;44.18
77631;BME280;66798;47.370;8.552;2023-03-09T10:33:42;95574.84;;;15.68;44.70
77631;BME280;66798;47.370;8.552;2023-03-09T10:38:40;95577.06;;;15.87;44.66
77631;BME280;66798;47.370;8.552;2023-03-09T10:41:15;95583.59;;;15.90;44.29
77631;BME280;66798;47.370;8.552;2023-03-09T10:43:43;95579.09;;;15.82;44.28
77631;BME280;66798;47.370;8.552;2023-03-09T10:48:39;95575.28;;;15.70;45.50
77631;BME280;66798;47.370;8.552;2023-03-09T10:51:06;95567.16;;;15.55;44.71
77631;BME280;66798;47.370;8.552;2023-03-09T10:53:45;95584.91;;;14.74;45.46
77631;BME280;66798;47.370;8.552;2023-03-09T10:59:08;95584.56;;;15.35;44.29
77631;BME280;66798;47.370;8.552;2023-03-09T11:01:39;95577.69;;;15.84;44.15
77631;BME280;66798;47.370;8.552;2023-03-09T11:04:29;95581.00;;;15.81;42.89
77631;BME280;66798;47.370;8.552;2023-03-09T11:07:00;95574.56;;;15.82;42.99
77631;BME280;66798;47.370;8.552;2023-03-09T11:09:33;95574.72;;;16.89;41.57
77631;BME280;66798;47.370;8.552;2023-03-09T11:12:34;95566.94;;;16.02;41.14
77631;BME280;66798;47.370;8.552;2023-03-09T11:17:40;95563.94;;;16.03;41.67
77631;BME280;66798;47.370;8.552;2023-03-09T11:22:46;95563.09;;;14.68;44.33
77631;BME280;66798;47.370;8.552;2023-03-09T11:25:45;95546.59;;;14.71;44.53
77631;BME280;66798;47.370;8.552;2023-03-09T11:28:26;95545.00;;;14.79;44.39
77631;BME280;66798;47.370;8.552;2023-03-09T11:30:56;95535.91;;;15.18;44.58
77631;BME280;66798;47.370;8.552;2023-03-09T11:33:24;95524.84;;;14.95;44.19
77631;BME280;66798;47.370;8.552;2023-03-09T11:35:53;95531.09;;;14.91;45.03
77631;BME280;66798;47.370;8.552;2023-03-09T11:38:22;95535.09;;;14.67;44.99
77631;BME280;66798;47.370;8.552;2023-03-09T11:41:16;95530.84;;;14.75;45.08
77631;BME280;66798;47.370;8.552;2023-03-09T11:43:49;95532.22;;;14.81;44.36
77631;BME280;66798;47.370;8.552;2023-03-09T11:46:16;95531.38;;;15.19;44.63
77631;BME280;66798;47.370;8.552;2023-03-09T11:49:04;95515.84;;;15.08;43.51
77631;BME280;66798;47.370;8.552;2023-03-09T11:51:37;95509.69;;;15.25;43.44
77631;BME280;66798;47.370;8.552;2023-03-09T11:54:26;95511.69;;;15.28;43.36
77631;BME280;66798;47.370;8.552;2023-03-09T11:56:55;95530.44;;;15.23;43.03
77631;BME280;66798;47.370;8.552;2023-03-09T12:02:36;95495.47;;;14.79;43.09
77631;BME280;66798;47.370;8.552;2023-03-09T12:05:11;95522.50;;;14.64;44.27
77631;BME280;66798;47.370;8.552;2023-03-09T12:07:50;95516.19;;;14.77;43.70
77631;BME280;66798;47.370;8.552;2023-03-09T12:10:53;95527.34;;;14.92;43.70
77631;BME280;66798;47.370;8.552;2023-03-09T12:13:46;95522.56;;;15.06;44.39
77631;BME280;66798;47.370;8.552;2023-03-09T12:16:35;95515.66;;;14.93;43.83
77631;BME280;66798;47.370;8.552;2023-03-09T12:19:05;95529.06;;;14.58;45.04
77631;BME280;66798;47.370;8.552;2023-03-09T12:21:49;95523.56;;;14.72;43.92
77631;BME280;66798;47.370;8.552;2023-03-09T12:24:45;95521.88;;;15.18;43.95
77631;BME280;66798;47.370;8.552;2023-03-09T12:27:20;95520.66;;;15.15;44.44
77631;BME280;66798;47.370;8.552;2023-03-09T12:29:54;95512.59;;;14.82;44.77
77631;BME280;66798;47.370;8.552;2023-03-09T12:35:07;95524.00;;;15.03;44.15
77631;BME280;66798;47.370;8.552;2023-03-09T12:40:19;95507.44;;;14.85;44.18
77631;BME280;66798;47.370;8.552;2023-03-09T12:42:48;95517.09;;;14.90;44.82
77631;BME280;66798;47.370;8.552;2023-03-09T12:47:59;95506.94;;;15.55;42.79
77631;BME280;66798;47.370;8.552;2023-03-09T12:53:20;95499.91;;;14.96;43.23
77631;BME280;66798;47.370;8.552;2023-03-09T12:55:47;95504.94;;;15.10;43.59
77631;BME280;66798;47.370;8.552;2023-03-09T13:03:17;95488.56;;;14.87;43.47
77631;BME280;66798;47.370;8.552;2023-03-09T13:05:46;95486.56;;;15.14;42.67
77631;BME280;66798;47.370;8.552;2023-03-09T13:08:28;95466.50;;;15.04;42.54
77631;BME280;66798;47.370;8.552;2023-03-09T13:11:26;95486.88;;;15.33;42.57
77631;BME280;66798;47.370;8.552;2023-03-09T13:14:09;95468.47;;;15.49;41.70
77631;BME280;66798;47.370;8.552;2023-03-09T13:24:37;95472.34;;;15.51;41.23
77631;BME280;66798;47.370;8.552;2023-03-09T13:32:23;95465.00;;;15.78;40.25
77631;BME280;66798;47.370;8.552;2023-03-09T13:34:52;95457.06;;;15.36;40.62
77631;BME280;66798;47.370;8.552;2023-03-09T13:37:23;95449.00;;;15.33;40.86
77631;BME280;66798;47.370;8.552;2023-03-09T13:40:00;95442.28;;;15.35;41.43
77631;BME280;66798;47.370;8.552;2023-03-09T13:42:28;95444.22;;;15.47;40.75
77631;BME280;66798;47.370;8.552;2023-03-09T13:44:55;95440.75;;;15.46;40.36
77631;BME280;66798;47.370;8.552;2023-03-09T13:47:27;95446.56;;;15.61;40.27
77631;BME280;66798;47.370;8.552;2023-03-09T13:49:54;95433.69;;;15.71;40.04
77631;BME280;66798;47.370;8.552;2023-03-09T13:52:21;95446.63;;;15.73;39.79
77631;BME280;66798;47.370;8.552;2023-03-09T13:54:53;95433.44;;;15.64;39.37
77631;BME280;66798;47.370;8.552;2023-03-09T14:02:24;95419.69;;;15.71;38.31
77631;BME280;66798;47.370;8.552;2023-03-09T14:10:36;95399.47;;;15.91;37.06
77631;BME280;66798;47.370;8.552;2023-03-09T14:13:12;95401.59;;;15.85;36.58
77631;BME280;66798;47.370;8.552;2023-03-09T14:15:39;95380.38;;;15.85;36.23
77631;BME280;66798;47.370;8.552;2023-03-09T14:18:27;95381.59;;;16.00;36.77
77631;BME280;66798;47.370;8.552;2023-03-09T14:20:56;95377.28;;;15.83;36.39
77631;BME280;66798;47.370;8.552;2023-03-09T14:23:42;95377.00;;;15.64;36.78